createdAt,value
2023-03-15T00:00:45.989Z,-0.2
2023-03-15T00:01:47.763Z,-0.24
2023-03-15T00:02:49.491Z,-0.26
2023-03-15T00:03:51.309Z,-0.31
2023-03-15T00:04:53.162Z,-0.33
2023-03-15T00:05:54.678Z,-0.35
2023-03-15T00:06:56.423Z,-0.37
2023-03-15T00:07:58.144Z,-0.37
2023-03-15T00:08:59.869Z,-0.38
2023-03-15T00:10:01.583Z,-0.39
2023-03-15T00:11:03.328Z,-0.37
2023-03-15T00:12:05.058Z,-0.36
2023-03-15T00:13:06.767Z,-0.35
2023-03-15T00:14:08.491Z,-0.35
2023-03-15T00:15:10.222Z,-0.34
2023-03-15T00:16:12.057Z,-0.31
2023-03-15T00:17:13.698Z,-0.31
2023-03-15T00:18:15.436Z,-0.3
2023-03-15T00:19:17.159Z,-0.29
2023-03-15T00:20:18.892Z,-0.27
2023-03-15T00:21:20.643Z,-0.26
2023-03-15T00:22:22.351Z,-0.26
2023-03-15T00:23:24.097Z,-0.25
2023-03-15T00:24:25.841Z,-0.25
2023-03-15T00:25:27.563Z,-0.26
2023-03-15T00:26:29.308Z,-0.27
2023-03-15T00:27:31.034Z,-0.25
2023-03-15T00:28:32.764Z,-0.26
2023-03-15T00:29:34.547Z,-0.26
2023-03-15T00:30:36.232Z,-0.27
2023-03-15T00:31:37.965Z,-0.28
2023-03-15T00:32:39.768Z,-0.3
2023-03-15T00:33:41.584Z,-0.31
2023-03-15T00:34:43.169Z,-0.33
2023-03-15T00:35:44.949Z,-0.34
2023-03-15T00:36:46.653Z,-0.34
2023-03-15T00:37:48.373Z,-0.37
2023-03-15T00:38:50.115Z,-0.38
2023-03-15T00:39:51.823Z,-0.41
2023-03-15T00:40:53.562Z,-0.42
2023-03-15T00:41:55.310Z,-0.45
2023-03-15T00:42:57.030Z,-0.46
2023-03-15T00:43:58.753Z,-0.49
2023-03-15T00:45:00.496Z,-0.51
2023-03-15T00:46:02.254Z,-0.54
2023-03-15T00:47:03.962Z,-0.57
2023-03-15T00:48:05.694Z,-0.6
2023-03-15T00:49:07.507Z,-0.62
2023-03-15T00:50:09.146Z,-0.67
2023-03-15T00:51:10.954Z,-0.68
2023-03-15T00:52:12.699Z,-0.7
2023-03-15T00:53:14.364Z,-0.72
2023-03-15T00:54:16.136Z,-0.72
2023-03-15T00:55:17.836Z,-0.75
2023-03-15T00:56:19.555Z,-0.75
2023-03-15T00:57:21.298Z,-0.75
2023-03-15T00:58:23.955Z,-0.76
2023-03-15T00:59:24.771Z,-0.75
2023-03-15T01:00:26.482Z,-0.76
2023-03-15T01:01:48.991Z,-0.74
2023-03-15T01:03:01.190Z,-0.75
2023-03-15T01:04:02.662Z,-0.74
2023-03-15T01:05:04.399Z,-0.74
2023-03-15T01:06:06.158Z,-0.74
2023-03-15T01:07:07.887Z,-0.74
2023-03-15T01:08:09.606Z,-0.73
2023-03-15T01:09:11.363Z,-0.73
2023-03-15T01:10:13.068Z,-0.73
2023-03-15T01:11:14.807Z,-0.73
2023-03-15T01:12:16.540Z,-0.74
2023-03-15T01:13:18.277Z,-0.75
2023-03-15T01:14:19.994Z,-0.76
2023-03-15T01:15:21.730Z,-0.76
2023-03-15T01:16:23.537Z,-0.78
2023-03-15T01:17:25.211Z,-0.79
2023-03-15T01:18:26.918Z,-0.81
2023-03-15T01:19:28.671Z,-0.82
2023-03-15T01:20:30.411Z,-0.83
2023-03-15T01:21:32.141Z,-0.84
2023-03-15T01:22:33.871Z,-0.86
2023-03-15T01:23:35.762Z,-0.86
2023-03-15T01:24:37.329Z,-0.88
2023-03-15T01:25:39.061Z,-0.89
2023-03-15T01:26:40.800Z,-0.91
2023-03-15T01:27:42.550Z,-0.91
2023-03-15T01:28:44.270Z,-0.91
2023-03-15T01:29:45.979Z,-0.91
2023-03-15T01:30:49.715Z,-0.89
2023-03-15T01:31:49.581Z,-0.87
2023-03-15T01:32:51.233Z,-0.84
2023-03-15T01:33:52.953Z,-0.82
2023-03-15T01:34:54.665Z,-0.8
2023-03-15T01:35:56.590Z,-0.77
2023-03-15T01:36:58.127Z,-0.75
2023-03-15T01:37:59.876Z,-0.73
2023-03-15T01:39:01.603Z,-0.71
2023-03-15T01:40:03.343Z,-0.69
2023-03-15T01:41:05.038Z,-0.67
2023-03-15T01:42:06.797Z,-0.65
2023-03-15T01:43:08.565Z,-0.63
2023-03-15T01:44:10.244Z,-0.61
2023-03-15T01:45:12.009Z,-0.61
2023-03-15T01:46:13.731Z,-0.59
2023-03-15T01:47:15.496Z,-0.56
2023-03-15T01:48:17.191Z,-0.55
2023-03-15T01:49:18.932Z,-0.54
2023-03-15T01:50:20.651Z,-0.54
2023-03-15T01:51:22.389Z,-0.54
2023-03-15T01:52:24.150Z,-0.54
2023-03-15T01:53:25.900Z,-0.55
2023-03-15T01:54:27.665Z,-0.54
2023-03-15T01:55:29.336Z,-0.53
2023-03-15T01:56:31.088Z,-0.54
2023-03-15T01:57:32.829Z,-0.54
2023-03-15T01:58:36.790Z,-0.54
2023-03-15T01:59:36.299Z,-0.54
2023-03-15T02:00:38.090Z,-0.54
2023-03-15T02:01:39.770Z,-0.55
2023-03-15T02:02:41.533Z,-0.55
2023-03-15T02:03:43.219Z,-0.56
2023-03-15T02:04:44.976Z,-0.56
2023-03-15T02:05:46.774Z,-0.56
2023-03-15T02:06:48.442Z,-0.56
2023-03-15T02:07:50.262Z,-0.57
2023-03-15T02:08:51.880Z,-0.58
2023-03-15T02:09:53.618Z,-0.58
2023-03-15T02:10:55.333Z,-0.59
2023-03-15T02:11:57.101Z,-0.6
2023-03-15T02:12:58.844Z,-0.62
2023-03-15T02:14:00.544Z,-0.63
2023-03-15T02:15:02.282Z,-0.65
2023-03-15T02:16:04.049Z,-0.64
2023-03-15T02:17:05.770Z,-0.64
2023-03-15T02:18:07.499Z,-0.65
2023-03-15T02:19:09.221Z,-0.64
2023-03-15T02:20:10.945Z,-0.65
2023-03-15T02:21:12.692Z,-0.65
2023-03-15T02:22:14.444Z,-0.64
2023-03-15T02:23:16.156Z,-0.65
2023-03-15T02:24:17.891Z,-0.65
2023-03-15T02:25:19.681Z,-0.65
2023-03-15T02:26:21.337Z,-0.64
2023-03-15T02:27:23.128Z,-0.61
2023-03-15T02:28:24.827Z,-0.6
2023-03-15T02:29:26.557Z,-0.58
2023-03-15T02:30:28.307Z,-0.56
2023-03-15T02:31:30.109Z,-0.54
2023-03-15T02:32:31.798Z,-0.52
2023-03-15T02:33:33.511Z,-0.51
2023-03-15T02:34:35.217Z,-0.5
2023-03-15T02:35:36.974Z,-0.48
2023-03-15T02:36:38.681Z,-0.47
2023-03-15T02:37:40.442Z,-0.45
2023-03-15T02:38:42.161Z,-0.45
2023-03-15T02:39:43.889Z,-0.44
2023-03-15T02:40:45.635Z,-0.42
2023-03-15T02:41:47.357Z,-0.42
2023-03-15T02:42:49.188Z,-0.41
2023-03-15T02:43:50.849Z,-0.4
2023-03-15T02:44:52.551Z,-0.38
2023-03-15T02:45:54.344Z,-0.37
2023-03-15T02:46:56.085Z,-0.37
2023-03-15T02:47:57.764Z,-0.35
2023-03-15T02:48:59.581Z,-0.35
2023-03-15T02:50:01.238Z,-0.35
2023-03-15T02:51:02.970Z,-0.36
2023-03-15T02:52:04.715Z,-0.39
2023-03-15T02:53:06.460Z,-0.39
2023-03-15T02:54:08.201Z,-0.41
2023-03-15T02:55:09.960Z,-0.42
2023-03-15T02:56:11.751Z,-0.44
2023-03-15T02:57:13.402Z,-0.45
2023-03-15T02:58:15.089Z,-0.49
2023-03-15T02:59:16.820Z,-0.52
2023-03-15T03:00:18.719Z,-0.54
2023-03-15T03:01:20.387Z,-0.55
2023-03-15T03:02:22.096Z,-0.59
2023-03-15T03:03:23.789Z,-0.61
2023-03-15T03:04:25.520Z,-0.65
2023-03-15T03:05:27.260Z,-0.67
2023-03-15T03:06:29.156Z,-0.71
2023-03-15T03:08:32.448Z,-0.76
2023-03-15T03:09:33.021Z,-0.72
2023-03-15T03:09:34.407Z,-0.79
2023-03-15T03:10:35.936Z,-0.81
2023-03-15T03:11:37.687Z,-0.83
2023-03-15T03:12:39.377Z,-0.85
2023-03-15T03:13:41.105Z,-0.86
2023-03-15T03:14:42.837Z,-0.88
2023-03-15T03:15:45.341Z,-0.89
2023-03-15T03:16:46.358Z,-0.91
2023-03-15T03:17:48.069Z,-0.91
2023-03-15T03:18:49.770Z,-0.91
2023-03-15T03:19:51.507Z,-0.95
2023-03-15T03:20:53.249Z,-0.97
2023-03-15T03:21:54.973Z,-0.98
2023-03-15T03:22:56.705Z,-1
2023-03-15T03:23:58.424Z,-1.03
2023-03-15T03:25:00.195Z,-1.05
2023-03-15T03:26:01.988Z,-1.06
2023-03-15T03:27:03.671Z,-1.09
2023-03-15T03:28:05.363Z,-1.11
2023-03-15T03:29:07.097Z,-1.13
2023-03-15T03:30:08.867Z,-1.14
2023-03-15T03:31:10.636Z,-1.16
2023-03-15T03:32:12.351Z,-1.17
2023-03-15T03:33:14.126Z,-1.18
2023-03-15T03:34:15.896Z,-1.19
2023-03-15T03:35:17.510Z,-1.2
2023-03-15T03:36:19.238Z,-1.21
2023-03-15T03:37:21.003Z,-1.22
2023-03-15T03:38:22.720Z,-1.24
2023-03-15T03:39:24.658Z,-1.25
2023-03-15T03:40:26.270Z,-1.26
2023-03-15T03:41:27.904Z,-1.28
2023-03-15T03:42:29.676Z,-1.28
2023-03-15T03:43:31.377Z,-1.29
2023-03-15T03:44:33.105Z,-1.3
2023-03-15T03:45:34.851Z,-1.3
2023-03-15T03:46:36.578Z,-1.31
2023-03-15T03:47:38.312Z,-1.31
2023-03-15T03:48:40.056Z,-1.31
2023-03-15T03:49:41.797Z,-1.32
2023-03-15T03:50:43.520Z,-1.31
2023-03-15T03:51:45.248Z,-1.32
2023-03-15T03:52:46.984Z,-1.33
2023-03-15T03:53:48.696Z,-1.33
2023-03-15T03:54:50.440Z,-1.33
2023-03-15T03:55:52.156Z,-1.33
2023-03-15T03:56:53.895Z,-1.34
2023-03-15T03:57:55.665Z,-1.33
2023-03-15T03:58:57.372Z,-1.31
2023-03-15T03:59:59.134Z,-1.33
2023-03-15T04:01:00.841Z,-1.33
2023-03-15T04:02:02.590Z,-1.32
2023-03-15T04:03:04.336Z,-1.32
2023-03-15T04:04:06.038Z,-1.32
2023-03-15T04:05:07.749Z,-1.32
2023-03-15T04:06:09.527Z,-1.32
2023-03-15T04:07:11.253Z,-1.32
2023-03-15T04:08:12.990Z,-1.33
2023-03-15T04:09:14.743Z,-1.31
2023-03-15T04:10:16.596Z,-1.32
2023-03-15T04:11:18.179Z,-1.32
2023-03-15T04:12:20.036Z,-1.31
2023-03-15T04:13:21.633Z,-1.31
2023-03-15T04:14:23.373Z,-1.32
2023-03-15T04:15:25.119Z,-1.33
2023-03-15T04:16:26.936Z,-1.32
2023-03-15T04:17:28.618Z,-1.32
2023-03-15T04:18:30.299Z,-1.33
2023-03-15T04:19:32.045Z,-1.34
2023-03-15T04:20:33.761Z,-1.33
2023-03-15T04:21:35.493Z,-1.33
2023-03-15T04:22:37.257Z,-1.33
2023-03-15T04:23:38.973Z,-1.34
2023-03-15T04:24:40.714Z,-1.32
2023-03-15T04:25:42.431Z,-1.29
2023-03-15T04:26:44.191Z,-1.27
2023-03-15T04:27:45.920Z,-1.19
2023-03-15T04:28:47.655Z,-1.16
2023-03-15T04:29:49.422Z,-1.12
2023-03-15T04:30:51.139Z,-1.09
2023-03-15T04:31:52.839Z,-1.04
2023-03-15T04:32:54.642Z,-0.99
2023-03-15T04:33:56.502Z,-0.97
2023-03-15T04:34:58.037Z,-0.92
2023-03-15T04:35:59.792Z,-0.89
2023-03-15T04:37:01.519Z,-0.82
2023-03-15T04:38:03.254Z,-0.79
2023-03-15T04:39:04.969Z,-0.73
2023-03-15T04:40:06.728Z,-0.68
2023-03-15T04:41:08.450Z,-0.64
2023-03-15T04:42:10.186Z,-0.59
2023-03-15T04:43:11.929Z,-0.56
2023-03-15T04:44:13.644Z,-0.53
2023-03-15T04:45:15.367Z,-0.5
2023-03-15T04:46:17.261Z,-0.48
2023-03-15T04:47:18.862Z,-0.47
2023-03-15T04:48:20.609Z,-0.45
2023-03-15T04:49:22.302Z,-0.42
2023-03-15T04:50:24.063Z,-0.41
2023-03-15T04:51:25.779Z,-0.4
2023-03-15T04:52:27.512Z,-0.37
2023-03-15T04:53:29.455Z,-0.36
2023-03-15T04:54:31.001Z,-0.35
2023-03-15T04:55:32.717Z,-0.33
2023-03-15T04:56:34.465Z,-0.32
2023-03-15T04:57:36.184Z,-0.3
2023-03-15T04:58:37.940Z,-0.29
2023-03-15T04:59:39.672Z,-0.27
2023-03-15T05:00:41.404Z,-0.27
2023-03-15T05:01:43.312Z,-0.27
2023-03-15T05:02:44.872Z,-0.25
2023-03-15T05:03:46.595Z,-0.25
2023-03-15T05:04:48.317Z,-0.24
2023-03-15T05:05:50.071Z,-0.24
2023-03-15T05:06:51.804Z,-0.25
2023-03-15T05:07:53.694Z,-0.25
2023-03-15T05:08:55.293Z,-0.25
2023-03-15T05:09:58.588Z,-0.24
2023-03-15T05:10:58.737Z,-0.24
2023-03-15T05:12:00.469Z,-0.23
2023-03-15T05:13:02.183Z,-0.23
2023-03-15T05:14:03.936Z,-0.22
2023-03-15T05:15:05.727Z,-0.21
2023-03-15T05:16:07.432Z,-0.2
2023-03-15T05:17:09.147Z,-0.2
2023-03-15T05:18:10.865Z,-0.2
2023-03-15T05:19:12.608Z,-0.18
2023-03-15T05:20:14.336Z,-0.19
2023-03-15T05:21:16.066Z,-0.18
2023-03-15T05:22:17.794Z,-0.18
2023-03-15T05:23:19.522Z,-0.17
2023-03-15T05:24:21.254Z,-0.17
2023-03-15T05:25:22.989Z,-0.16
2023-03-15T05:26:24.714Z,-0.17
2023-03-15T05:27:26.453Z,-0.15
2023-03-15T05:28:28.181Z,-0.16
2023-03-15T05:29:29.955Z,-0.16
2023-03-15T05:30:31.649Z,-0.14
2023-03-15T05:31:33.519Z,-0.15
2023-03-15T05:32:35.236Z,-0.14
2023-03-15T05:33:37.047Z,-0.13
2023-03-15T05:34:38.614Z,-0.13
2023-03-15T05:35:40.377Z,-0.13
2023-03-15T05:36:42.069Z,-0.12
2023-03-15T05:37:43.813Z,-0.13
2023-03-15T05:38:45.802Z,-0.13
2023-03-15T05:39:47.292Z,-0.12
2023-03-15T05:40:48.990Z,-0.12
2023-03-15T05:41:50.764Z,-0.12
2023-03-15T05:42:52.452Z,-0.11
2023-03-15T05:43:54.215Z,-0.11
2023-03-15T05:44:55.914Z,-0.11
2023-03-15T05:45:57.702Z,-0.11
2023-03-15T05:46:59.440Z,-0.11
2023-03-15T05:48:01.132Z,-0.1
2023-03-15T05:49:02.864Z,-0.09
2023-03-15T05:50:04.606Z,-0.08
2023-03-15T05:51:06.319Z,-0.07
2023-03-15T05:52:08.048Z,-0.06
2023-03-15T05:53:09.809Z,-0.06
2023-03-15T05:54:11.547Z,-0.04
2023-03-15T05:55:13.266Z,-0.03
2023-03-15T05:56:14.990Z,-0.02
2023-03-15T05:57:16.754Z,-0.02
2023-03-15T05:58:18.477Z,-0.02
2023-03-15T05:59:20.198Z,-0.01
2023-03-15T06:00:22.010Z,0.01
2023-03-15T06:01:23.659Z,0.02
2023-03-15T06:02:25.415Z,0.03
2023-03-15T06:03:27.241Z,0.03
2023-03-15T06:04:29.045Z,0.05
2023-03-15T06:05:30.606Z,0.04
2023-03-15T06:06:33.827Z,0.05
2023-03-15T06:07:34.084Z,0.05
2023-03-15T06:08:35.796Z,0.06
2023-03-15T06:09:37.534Z,0.07
2023-03-15T06:10:39.296Z,0.08
2023-03-15T06:11:41.028Z,0.08
2023-03-15T06:12:42.740Z,0.07
2023-03-15T06:13:44.467Z,0.08
2023-03-15T06:14:46.187Z,0.09
2023-03-15T06:15:47.970Z,0.09
2023-03-15T06:16:49.718Z,0.08
2023-03-15T06:17:51.392Z,0.1
2023-03-15T06:18:53.129Z,0.1
2023-03-15T06:19:54.874Z,0.11
2023-03-15T06:20:56.611Z,0.11
2023-03-15T06:21:58.334Z,0.12
2023-03-15T06:23:00.111Z,0.13
2023-03-15T06:24:01.787Z,0.13
2023-03-15T06:25:03.552Z,0.15
2023-03-15T06:26:05.367Z,0.15
2023-03-15T06:27:07.022Z,0.16
2023-03-15T06:28:08.727Z,0.17
2023-03-15T06:29:10.468Z,0.18
2023-03-15T06:30:12.211Z,0.18
2023-03-15T06:31:13.977Z,0.19
2023-03-15T06:32:15.669Z,0.2
2023-03-15T06:33:17.403Z,0.2
2023-03-15T06:34:19.127Z,0.21
2023-03-15T06:35:20.897Z,0.21
2023-03-15T06:36:22.617Z,0.23
2023-03-15T06:37:34.502Z,0.26
2023-03-15T06:38:26.200Z,0.28
2023-03-15T06:39:27.997Z,0.31
2023-03-15T06:40:29.535Z,0.32
2023-03-15T06:41:31.294Z,0.36
2023-03-15T06:42:33.001Z,0.36
2023-03-15T06:43:34.724Z,0.39
2023-03-15T06:44:36.468Z,0.4
2023-03-15T06:45:38.213Z,0.42
2023-03-15T06:46:39.967Z,0.42
2023-03-15T06:47:41.672Z,0.45
2023-03-15T06:48:43.421Z,0.45
2023-03-15T06:49:45.124Z,0.45
2023-03-15T06:50:47.881Z,0.47
2023-03-15T06:51:48.629Z,0.49
2023-03-15T06:52:50.345Z,0.48
2023-03-15T06:53:52.073Z,0.49
2023-03-15T06:54:53.803Z,0.51
2023-03-15T06:55:55.539Z,0.53
2023-03-15T06:56:57.287Z,0.55
2023-03-15T06:57:59.024Z,0.58
2023-03-15T06:59:00.720Z,0.62
2023-03-15T07:00:02.465Z,0.66
2023-03-15T07:01:04.264Z,0.69
2023-03-15T07:02:05.957Z,0.74
2023-03-15T07:03:07.669Z,0.78
2023-03-15T07:04:09.391Z,0.81
2023-03-15T07:05:11.135Z,0.86
2023-03-15T07:06:12.885Z,0.89
2023-03-15T07:07:14.635Z,0.93
2023-03-15T07:08:16.337Z,0.95
2023-03-15T07:09:18.076Z,0.97
2023-03-15T07:10:19.835Z,0.98
2023-03-15T07:11:21.544Z,0.98
2023-03-15T07:12:23.321Z,0.99
2023-03-15T07:13:25.001Z,1
2023-03-15T07:14:26.756Z,1
2023-03-15T07:15:28.481Z,1.01
2023-03-15T07:16:30.206Z,1.03
2023-03-15T07:17:31.970Z,1.03
2023-03-15T07:18:33.680Z,1.04
2023-03-15T07:19:37.309Z,1.06
2023-03-15T07:20:37.776Z,1.07
2023-03-15T07:21:38.905Z,1.07
2023-03-15T07:22:40.661Z,1.05
2023-03-15T07:23:42.332Z,1.05
2023-03-15T07:24:44.134Z,1.05
2023-03-15T07:25:54.684Z,1.05
2023-03-15T07:26:47.567Z,1.04
2023-03-15T07:27:49.309Z,1.04
2023-03-15T07:28:51.022Z,1.05
2023-03-15T07:29:52.753Z,1.07
2023-03-15T07:30:54.494Z,1.08
2023-03-15T07:31:56.290Z,1.11
2023-03-15T07:32:58.010Z,1.14
2023-03-15T07:33:59.676Z,1.16
2023-03-15T07:35:01.410Z,1.19
2023-03-15T07:36:03.166Z,1.25
2023-03-15T07:37:04.926Z,1.27
2023-03-15T07:38:06.625Z,1.3
2023-03-15T07:39:08.352Z,1.3
2023-03-15T07:40:10.101Z,1.31
2023-03-15T07:41:11.811Z,1.34
2023-03-15T07:42:13.575Z,1.35
2023-03-15T07:43:15.290Z,1.36
2023-03-15T07:44:17.000Z,1.35
2023-03-15T07:45:18.741Z,1.37
2023-03-15T07:46:20.551Z,1.37
2023-03-15T07:47:22.225Z,1.38
2023-03-15T07:48:23.933Z,1.4
2023-03-15T07:49:25.659Z,1.43
2023-03-15T07:50:27.417Z,1.45
2023-03-15T07:51:29.136Z,1.49
2023-03-15T07:52:30.894Z,1.51
2023-03-15T07:53:32.597Z,1.54
2023-03-15T07:54:34.343Z,1.58
2023-03-15T07:55:36.228Z,1.59
2023-03-15T07:56:37.810Z,1.61
2023-03-15T07:57:39.580Z,1.62
2023-03-15T07:58:41.278Z,1.64
2023-03-15T07:59:43.019Z,1.66
2023-03-15T08:00:44.772Z,1.68
2023-03-15T08:01:46.533Z,1.7
2023-03-15T08:02:48.278Z,1.71
2023-03-15T08:03:49.980Z,1.73
2023-03-15T08:04:51.677Z,1.74
2023-03-15T08:05:53.413Z,1.77
2023-03-15T08:06:55.147Z,1.79
2023-03-15T08:07:56.942Z,1.81
2023-03-15T08:08:58.633Z,1.84
2023-03-15T08:10:00.368Z,1.86
2023-03-15T08:11:02.101Z,1.88
2023-03-15T08:12:03.822Z,1.9
2023-03-15T08:13:05.571Z,1.91
2023-03-15T08:14:07.298Z,1.94
2023-03-15T08:15:09.011Z,1.96
2023-03-15T08:16:10.848Z,1.97
2023-03-15T08:17:12.560Z,1.97
2023-03-15T08:18:14.249Z,2
2023-03-15T08:19:15.954Z,2.03
2023-03-15T08:20:17.910Z,2.05
2023-03-15T08:21:19.413Z,2.08
2023-03-15T08:22:21.149Z,2.08
2023-03-15T08:23:22.942Z,2.09
2023-03-15T08:24:24.624Z,2.11
2023-03-15T08:25:26.361Z,2.12
2023-03-15T08:26:28.089Z,2.16
2023-03-15T08:27:29.814Z,2.18
2023-03-15T08:28:31.559Z,2.2
2023-03-15T08:29:33.296Z,2.22
2023-03-15T08:30:35.036Z,2.21
2023-03-15T08:31:36.937Z,2.21
2023-03-15T08:32:38.538Z,2.2
2023-03-15T08:33:40.229Z,2.18
2023-03-15T08:34:41.951Z,2.17
2023-03-15T08:35:43.814Z,2.16
2023-03-15T08:36:45.603Z,2.14
2023-03-15T08:37:47.243Z,2.14
2023-03-15T08:38:48.911Z,2.14
2023-03-15T08:39:50.636Z,2.14
2023-03-15T08:40:52.384Z,2.12
2023-03-15T08:41:54.104Z,2.11
2023-03-15T08:42:55.843Z,2.11
2023-03-15T08:43:57.761Z,2.12
2023-03-15T08:44:59.325Z,2.15
2023-03-15T08:46:02.043Z,2.21
2023-03-15T08:47:02.779Z,2.24
2023-03-15T08:48:04.498Z,2.25
2023-03-15T08:49:06.232Z,2.26
2023-03-15T08:50:07.962Z,2.27
2023-03-15T08:51:09.852Z,2.28
2023-03-15T08:52:11.441Z,2.29
2023-03-15T08:53:13.166Z,2.28
2023-03-15T08:54:14.933Z,2.28
2023-03-15T08:55:16.630Z,2.29
2023-03-15T08:56:18.373Z,2.3
2023-03-15T08:57:20.096Z,2.35
2023-03-15T08:58:21.828Z,2.42
2023-03-15T08:59:31.759Z,2.48
2023-03-15T09:00:25.328Z,2.53
2023-03-15T09:01:27.096Z,2.57
2023-03-15T09:02:28.823Z,2.59
2023-03-15T09:03:30.554Z,2.63
2023-03-15T09:04:32.383Z,2.67
2023-03-15T09:05:34.016Z,2.7
2023-03-15T09:06:35.703Z,2.71
2023-03-15T09:07:37.433Z,2.72
2023-03-15T09:08:39.193Z,2.73
2023-03-15T09:09:40.915Z,2.76
2023-03-15T09:10:42.637Z,2.77
2023-03-15T09:11:44.384Z,2.81
2023-03-15T09:12:46.090Z,2.86
2023-03-15T09:13:47.850Z,2.91
2023-03-15T09:14:49.609Z,2.96
2023-03-15T09:15:51.311Z,3.02
2023-03-15T09:16:53.095Z,3.09
2023-03-15T09:17:54.784Z,3.18
2023-03-15T09:18:56.517Z,3.25
2023-03-15T09:19:58.282Z,3.33
2023-03-15T09:20:59.978Z,3.39
2023-03-15T09:22:16.092Z,3.48
2023-03-15T09:23:03.444Z,3.57
2023-03-15T09:24:05.207Z,3.7
2023-03-15T09:25:06.946Z,3.8
2023-03-15T09:26:08.670Z,3.87
2023-03-15T09:27:10.366Z,3.92
2023-03-15T09:28:12.123Z,3.96
2023-03-15T09:29:13.839Z,3.99
2023-03-15T09:30:15.599Z,4.01
2023-03-15T09:31:17.410Z,4.04
2023-03-15T09:32:19.060Z,4.1
2023-03-15T09:33:20.776Z,4.18
2023-03-15T09:34:23.525Z,4.21
2023-03-15T09:35:24.270Z,4.26
2023-03-15T09:36:25.980Z,4.27
2023-03-15T09:37:27.737Z,4.25
2023-03-15T09:38:29.576Z,4.24
2023-03-15T09:39:31.208Z,4.21
2023-03-15T09:40:32.936Z,4.18
2023-03-15T09:41:34.668Z,4.15
2023-03-15T09:42:36.420Z,4.1
2023-03-15T09:43:38.123Z,4.05
2023-03-15T09:44:39.860Z,4.01
2023-03-15T09:45:41.651Z,3.97
2023-03-15T09:46:43.354Z,3.95
2023-03-15T09:47:45.175Z,3.95
2023-03-15T09:48:46.811Z,3.93
2023-03-15T09:49:48.530Z,3.96
2023-03-15T09:50:50.278Z,3.97
2023-03-15T09:51:52.008Z,3.95
2023-03-15T09:52:53.738Z,3.99
2023-03-15T09:53:55.486Z,4.03
2023-03-15T09:54:57.220Z,4.06
2023-03-15T09:55:58.938Z,4.14
2023-03-15T09:57:00.676Z,4.17
2023-03-15T09:58:02.444Z,4.18
2023-03-15T09:59:04.151Z,4.22
2023-03-15T10:00:05.906Z,4.27
2023-03-15T10:01:08.042Z,4.33
2023-03-15T10:02:09.386Z,4.35
2023-03-15T10:03:11.157Z,4.37
2023-03-15T10:04:12.821Z,4.39
2023-03-15T10:05:14.758Z,4.41
2023-03-15T10:06:16.353Z,4.42
2023-03-15T10:07:18.017Z,4.42
2023-03-15T10:08:19.748Z,4.45
2023-03-15T10:09:21.495Z,4.46
2023-03-15T10:10:23.207Z,4.47
2023-03-15T10:11:24.966Z,4.47
2023-03-15T10:12:26.724Z,4.49
2023-03-15T10:13:28.426Z,4.51
2023-03-15T10:14:30.154Z,4.55
2023-03-15T10:15:31.904Z,4.57
2023-03-15T10:16:33.717Z,4.67
2023-03-15T10:17:35.357Z,4.78
2023-03-15T10:18:37.083Z,4.8
2023-03-15T10:19:38.891Z,4.99
2023-03-15T10:20:40.554Z,4.97
2023-03-15T10:21:42.370Z,4.97
2023-03-15T10:22:44.068Z,5.01
2023-03-15T10:23:45.773Z,5.03
2023-03-15T10:24:47.486Z,5.14
2023-03-15T10:25:49.224Z,5.18
2023-03-15T10:26:50.974Z,5.35
2023-03-15T10:27:52.705Z,5.54
2023-03-15T10:28:54.462Z,5.69
2023-03-15T10:29:56.175Z,5.83
2023-03-15T10:30:57.945Z,6.08
2023-03-15T10:31:59.700Z,6.32
2023-03-15T10:33:01.485Z,6.6
2023-03-15T10:34:03.089Z,6.78
2023-03-15T10:35:04.839Z,6.79
2023-03-15T10:36:11.287Z,6.85
2023-03-15T10:37:08.323Z,6.93
2023-03-15T10:38:10.230Z,6.99
2023-03-15T10:39:11.767Z,6.96
2023-03-15T10:40:13.489Z,6.99
2023-03-15T10:41:17.752Z,7
2023-03-15T10:42:16.973Z,6.94
2023-03-15T10:43:18.726Z,6.89
2023-03-15T10:44:20.449Z,6.83
2023-03-15T10:45:22.223Z,6.78
2023-03-15T10:46:23.957Z,6.8
2023-03-15T10:47:25.655Z,6.76
2023-03-15T10:48:27.364Z,6.74
2023-03-15T10:49:29.121Z,6.78
2023-03-15T10:50:30.861Z,6.88
2023-03-15T10:51:32.580Z,6.88
2023-03-15T10:52:34.358Z,6.89
2023-03-15T10:53:36.045Z,6.89
2023-03-15T10:54:37.792Z,6.88
2023-03-15T10:55:39.507Z,6.89
2023-03-15T10:56:41.232Z,6.89
2023-03-15T10:57:42.993Z,6.85
2023-03-15T10:58:44.718Z,6.8
2023-03-15T10:59:46.434Z,6.75
2023-03-15T11:00:48.192Z,6.68
2023-03-15T11:01:49.944Z,6.6
2023-03-15T11:02:51.750Z,6.51
2023-03-15T11:03:53.500Z,6.39
2023-03-15T11:04:55.297Z,6.29
2023-03-15T11:05:56.901Z,6.22
2023-03-15T11:06:58.638Z,6.11
2023-03-15T11:08:00.369Z,6.06
2023-03-15T11:09:02.041Z,5.97
2023-03-15T11:10:03.783Z,5.87
2023-03-15T11:11:05.512Z,5.8
2023-03-15T11:12:07.271Z,5.66
2023-03-15T11:13:09.007Z,5.59
2023-03-15T11:14:10.740Z,5.48
2023-03-15T11:15:12.468Z,5.35
2023-03-15T11:16:14.281Z,5.29
2023-03-15T11:17:15.943Z,5.18
2023-03-15T11:18:17.675Z,5.13
2023-03-15T11:19:19.384Z,5.09
2023-03-15T11:20:21.139Z,5.02
2023-03-15T11:21:22.852Z,4.98
2023-03-15T11:22:24.601Z,4.95
2023-03-15T11:23:26.366Z,4.91
2023-03-15T11:24:28.146Z,4.91
2023-03-15T11:25:29.812Z,4.91
2023-03-15T11:26:32.933Z,4.94
2023-03-15T11:27:33.272Z,4.99
2023-03-15T11:28:35.010Z,4.99
2023-03-15T11:29:36.741Z,5.03
2023-03-15T11:30:38.482Z,5.05
2023-03-15T11:31:40.266Z,5.08
2023-03-15T11:32:42.005Z,5.1
2023-03-15T11:33:43.687Z,5.13
2023-03-15T11:34:45.423Z,5.16
2023-03-15T11:35:47.211Z,5.16
2023-03-15T11:36:55.656Z,5.18
2023-03-15T11:37:50.674Z,5.07
2023-03-15T11:38:52.363Z,5.04
2023-03-15T11:40:05.114Z,4.94
2023-03-15T11:40:55.806Z,4.87
2023-03-15T11:41:57.563Z,4.84
2023-03-15T11:42:59.295Z,4.74
2023-03-15T11:44:01.026Z,4.7
2023-03-15T11:45:02.831Z,4.63
2023-03-15T11:46:04.541Z,4.56
2023-03-15T11:47:06.220Z,4.54
2023-03-15T11:48:07.951Z,4.47
2023-03-15T11:49:09.694Z,4.36
2023-03-15T11:50:11.461Z,4.34
2023-03-15T11:51:13.177Z,4.29
2023-03-15T11:52:14.877Z,4.2
2023-03-15T11:53:16.630Z,4.18
2023-03-15T11:54:18.388Z,4.12
2023-03-15T11:55:20.101Z,4.05
2023-03-15T11:56:21.808Z,4.06
2023-03-15T11:57:23.561Z,4.04
2023-03-15T11:58:25.294Z,4.04
2023-03-15T11:59:27.022Z,4.04
2023-03-15T12:00:28.773Z,4.06
2023-03-15T12:01:30.493Z,4.12
2023-03-15T12:02:32.283Z,4.18
2023-03-15T12:03:34.583Z,4.24
2023-03-15T12:04:35.701Z,4.3
2023-03-15T12:05:37.427Z,4.34
2023-03-15T12:06:39.176Z,4.41
2023-03-15T12:07:40.906Z,4.42
2023-03-15T12:08:42.634Z,4.52
2023-03-15T12:09:44.366Z,4.56
2023-03-15T12:10:46.097Z,4.55
2023-03-15T12:11:47.816Z,4.53
2023-03-15T12:12:49.568Z,4.53
2023-03-15T12:13:51.289Z,4.49
2023-03-15T12:14:53.130Z,4.45
2023-03-15T12:15:54.761Z,4.43
2023-03-15T12:16:56.502Z,4.43
2023-03-15T12:17:58.256Z,4.41
2023-03-15T12:18:59.977Z,4.42
2023-03-15T12:20:01.719Z,4.43
2023-03-15T12:21:03.428Z,4.42
2023-03-15T12:22:05.187Z,4.4
2023-03-15T12:23:06.898Z,4.41
2023-03-15T12:24:08.637Z,4.38
2023-03-15T12:25:10.368Z,4.37
2023-03-15T12:26:11.948Z,4.39
2023-03-15T12:27:13.686Z,4.42
2023-03-15T12:28:15.480Z,4.44
2023-03-15T12:29:17.139Z,4.56
2023-03-15T12:30:18.887Z,4.66
2023-03-15T12:31:20.747Z,4.78
2023-03-15T12:32:22.430Z,4.89
2023-03-15T12:33:24.062Z,5.03
2023-03-15T12:34:25.808Z,5.18
2023-03-15T12:35:27.546Z,5.35
2023-03-15T12:36:29.273Z,5.54
2023-03-15T12:37:31.036Z,5.76
2023-03-15T12:38:32.734Z,5.88
2023-03-15T12:39:34.494Z,5.98
2023-03-15T12:40:36.231Z,6.08
2023-03-15T12:41:37.953Z,6.15
2023-03-15T12:42:39.692Z,6.24
2023-03-15T12:43:41.425Z,6.4
2023-03-15T12:44:43.153Z,6.58
2023-03-15T12:45:44.901Z,6.77
2023-03-15T12:46:46.617Z,6.99
2023-03-15T12:47:48.364Z,7.18
2023-03-15T12:48:50.073Z,7.43
2023-03-15T12:49:51.799Z,7.65
2023-03-15T12:50:53.542Z,7.85
2023-03-15T12:51:57.376Z,8.06
2023-03-15T12:52:57.004Z,8.23
2023-03-15T12:53:58.749Z,8.46
2023-03-15T12:55:00.490Z,8.61
2023-03-15T12:56:08.514Z,8.8
2023-03-15T12:57:03.952Z,8.89
2023-03-15T12:58:05.689Z,8.89
2023-03-15T12:59:07.400Z,8.88
2023-03-15T13:00:09.141Z,8.82
2023-03-15T13:01:10.884Z,8.72
2023-03-15T13:02:12.643Z,8.62
2023-03-15T13:03:14.508Z,8.52
2023-03-15T13:04:16.086Z,8.4
2023-03-15T13:05:17.912Z,8.4
2023-03-15T13:06:19.558Z,8.43
2023-03-15T13:07:21.491Z,8.49
2023-03-15T13:08:23.044Z,8.68
2023-03-15T13:09:24.904Z,8.85
2023-03-15T13:10:26.496Z,9.03
2023-03-15T13:11:28.224Z,8.98
2023-03-15T13:12:29.969Z,8.92
2023-03-15T13:13:31.694Z,8.88
2023-03-15T13:14:33.438Z,8.73
2023-03-15T13:15:35.271Z,8.57
2023-03-15T13:16:36.892Z,8.45
2023-03-15T13:17:38.653Z,8.28
2023-03-15T13:18:40.514Z,8.11
2023-03-15T13:19:42.108Z,7.95
2023-03-15T13:20:43.846Z,7.79
2023-03-15T13:21:45.662Z,7.64
2023-03-15T13:22:55.498Z,7.47
2023-03-15T13:23:49.038Z,7.35
2023-03-15T13:24:50.774Z,7.19
2023-03-15T13:25:52.502Z,7.09
2023-03-15T13:26:54.226Z,7.12
2023-03-15T13:27:55.976Z,7.11
2023-03-15T13:28:57.718Z,7.12
2023-03-15T13:29:59.420Z,7.27
2023-03-15T13:31:01.206Z,7.39
2023-03-15T13:32:02.914Z,7.5
2023-03-15T13:33:04.768Z,7.66